Saratoga Springs, New York
Current Conditions -  °F | °C
As of 3:53 AM on Sunday 26 Oct 2014 (Local Time) from KGFL Reporting Station
Overcast Overcast  
Wind Chill: 50°   Ceiling: 6500
Heat Index: 50°   Visibility: 10mi
Dew Point: 46°   Wind: 6mph
Humidity: 86%   Direction: 230°SW
Pressure: 29.47"   Gusts: NA
Location:  43.08°N, 73.78°W
Report Text: KGFL 260753Z AUTO 23005KT 10SM FEW043 OVC065 10/08 A2947 RMK AO2 SLP981 T01000078
Loading
Personal Weather Stations






























Interactive Weather Map New forecast layout! Learn more

10-Day Weather Forecast

Advertisements
Track Severe Weather on mobile